アスタナ の空港の天気 - METARとTAF

アスタナ国際空港 ( UACC / TSE ) - カザフスタン アスタナ
飛行場実況気象(Metar)
観測時間08/26 00:00 QYZT (08/25 19:00 UTC)
風向・風速南南東 3m/s
視程10km以上
天気現象
なし
気温19℃
湿度64%
気圧1015hPa
METARUACC 251900Z 15003MPS CAVOK 19/12 Q1015 R22/0///70 NOSIG RMK QFE730/0973
過去の天気等 Google飛行場航空写真 Wunderground天気予報

過去48時間のMETAR

飛行場予報(TAF)
発表時間: 8/25 22:00 QYZT (8/25 17:00 UTC)
予報対象時間: 25日23時 QYZT ~ 26日23時 QYZT
風向・風速南 4m/s
視程10km以上
全天の4割程度の雲 雲底高度 1220m
全天の8割程度の雲 雲底高度 3050m
26日7時 QYZT ~ 26日9時 QYZT に徐々に
風向・風速南南西 6m/s
26日9時 QYZT ~ 26日19時 QYZT に一時的に
風向・風速西南西 6m/s 瞬間風速 11m/s
26日19時 QYZT ~ 26日23時 QYZT に一時的に
風向・風速南 5m/s
全天の4割程度の積乱雲 雲底高度 910m
TAF UACC 251700Z 2518/2618 17004MPS 9999 SCT040 BKN100 TX31/2610Z TN13/2523Z
BECMG 2602/2604 21006MPS
TEMPO 2604/2614 24006G11MPS
TEMPO 2614/2618 18005MPS SCT030CB